sensor_id;sensor_type;location;lat;lon;timestamp;temperature;humidity
2621;DHT22;1320;48.128;11.592;2022-10-29T00:01:45;18.80;99.40
2621;DHT22;1320;48.128;11.592;2022-10-29T00:04:11;18.80;99.30
2621;DHT22;1320;48.128;11.592;2022-10-29T00:06:36;18.80;99.20
2621;DHT22;1320;48.128;11.592;2022-10-29T00:09:03;18.70;99.20
2621;DHT22;1320;48.128;11.592;2022-10-29T00:11:29;18.70;99.10
2621;DHT22;1320;48.128;11.592;2022-10-29T00:13:59;18.70;99.10
2621;DHT22;1320;48.128;11.592;2022-10-29T00:16:28;18.70;99.10
2621;DHT22;1320;48.128;11.592;2022-10-29T00:18:55;18.70;99.00
2621;DHT22;1320;48.128;11.592;2022-10-29T00:21:23;18.70;99.10
2621;DHT22;1320;48.128;11.592;2022-10-29T00:23:49;18.70;99.10
2621;DHT22;1320;48.128;11.592;2022-10-29T00:26:17;18.70;99.00
2621;DHT22;1320;48.128;11.592;2022-10-29T00:28:43;18.70;99.00
2621;DHT22;1320;48.128;11.592;2022-10-29T00:31:11;18.80;99.00
2621;DHT22;1320;48.128;11.592;2022-10-29T00:33:37;18.80;98.90
2621;DHT22;1320;48.128;11.592;2022-10-29T00:36:09;18.80;98.80
2621;DHT22;1320;48.128;11.592;2022-10-29T00:38:35;18.80;98.70
2621;DHT22;1320;48.128;11.592;2022-10-29T00:41:02;18.80;98.70
2621;DHT22;1320;48.128;11.592;2022-10-29T00:43:29;18.80;98.80
2621;DHT22;1320;48.128;11.592;2022-10-29T00:46:11;18.80;98.90
2621;DHT22;1320;48.128;11.592;2022-10-29T00:48:47;18.80;98.80
2621;DHT22;1320;48.128;11.592;2022-10-29T00:51:15;18.80;98.80
2621;DHT22;1320;48.128;11.592;2022-10-29T00:53:54;18.80;98.80
2621;DHT22;1320;48.128;11.592;2022-10-29T00:56:22;18.80;98.70
2621;DHT22;1320;48.128;11.592;2022-10-29T00:58:49;18.80;98.80
2621;DHT22;1320;48.128;11.592;2022-10-29T01:01:15;18.70;98.80
2621;DHT22;1320;48.128;11.592;2022-10-29T01:03:40;18.80;98.80
2621;DHT22;1320;48.128;11.592;2022-10-29T01:06:07;18.70;98.70
2621;DHT22;1320;48.128;11.592;2022-10-29T01:08:34;18.70;98.60
2621;DHT22;1320;48.128;11.592;2022-10-29T01:23:04;18.60;98.90
2621;DHT22;1320;48.128;11.592;2022-10-29T01:25:35;18.60;99.00
2621;DHT22;1320;48.128;11.592;2022-10-29T01:31:08;18.50;99.20
2621;DHT22;1320;48.128;11.592;2022-10-29T01:36:26;18.30;99.40
2621;DHT22;1320;48.128;11.592;2022-10-29T01:41:40;18.20;99.90
2621;DHT22;1320;48.128;11.592;2022-10-29T01:46:56;18.00;99.80
2621;DHT22;1320;48.128;11.592;2022-10-29T01:49:28;18.00;99.80
2621;DHT22;1320;48.128;11.592;2022-10-29T01:51:57;17.90;99.90
2621;DHT22;1320;48.128;11.592;2022-10-29T01:54:26;17.90;99.90
2621;DHT22;1320;48.128;11.592;2022-10-29T01:56:56;17.80;99.90
2621;DHT22;1320;48.128;11.592;2022-10-29T01:59:23;17.90;99.90
2621;DHT22;1320;48.128;11.592;2022-10-29T02:07:37;17.80;99.90
2621;DHT22;1320;48.128;11.592;2022-10-29T02:10:31;17.60;99.90
2621;DHT22;1320;48.128;11.592;2022-10-29T02:12:58;17.60;99.90
2621;DHT22;1320;48.128;11.592;2022-10-29T02:15:34;17.50;99.90
2621;DHT22;1320;48.128;11.592;2022-10-29T02:18:02;17.60;99.90
2621;DHT22;1320;48.128;11.592;2022-10-29T02:20:29;17.60;99.90
2621;DHT22;1320;48.128;11.592;2022-10-29T02:22:55;17.50;99.90
2621;DHT22;1320;48.128;11.592;2022-10-29T02:25:21;17.50;99.90
2621;DHT22;1320;48.128;11.592;2022-10-29T02:27:47;17.50;99.90
2621;DHT22;1320;48.128;11.592;2022-10-29T02:30:13;17.50;99.90
2621;DHT22;1320;48.128;11.592;2022-10-29T02:32:39;17.50;99.90
2621;DHT22;1320;48.128;11.592;2022-10-29T02:35:05;17.50;99.90
2621;DHT22;1320;48.128;11.592;2022-10-29T02:37:31;17.40;99.90
2621;DHT22;1320;48.128;11.592;2022-10-29T02:39:56;17.30;99.90
2621;DHT22;1320;48.128;11.592;2022-10-29T02:42:22;17.30;99.90
2621;DHT22;1320;48.128;11.592;2022-10-29T02:44:48;17.30;99.90
2621;DHT22;1320;48.128;11.592;2022-10-29T02:47:13;17.20;99.90
2621;DHT22;1320;48.128;11.592;2022-10-29T02:49:39;17.20;99.90
2621;DHT22;1320;48.128;11.592;2022-10-29T02:52:05;17.20;99.90
2621;DHT22;1320;48.128;11.592;2022-10-29T02:54:30;17.10;99.90
2621;DHT22;1320;48.128;11.592;2022-10-29T02:56:56;17.10;99.90
2621;DHT22;1320;48.128;11.592;2022-10-29T02:59:22;17.10;99.90
2621;DHT22;1320;48.128;11.592;2022-10-29T03:01:47;17.10;99.90
2621;DHT22;1320;48.128;11.592;2022-10-29T03:04:13;17.10;99.90
2621;DHT22;1320;48.128;11.592;2022-10-29T03:06:39;17.10;99.90
2621;DHT22;1320;48.128;11.592;2022-10-29T03:09:05;17.10;99.90
2621;DHT22;1320;48.128;11.592;2022-10-29T03:11:30;17.10;99.90
2621;DHT22;1320;48.128;11.592;2022-10-29T03:13:56;17.10;99.90
2621;DHT22;1320;48.128;11.592;2022-10-29T03:16:22;17.10;99.90
2621;DHT22;1320;48.128;11.592;2022-10-29T03:18:47;17.10;99.90
2621;DHT22;1320;48.128;11.592;2022-10-29T03:21:13;17.10;99.90
2621;DHT22;1320;48.128;11.592;2022-10-29T03:23:39;17.00;99.90
2621;DHT22;1320;48.128;11.592;2022-10-29T03:26:04;17.10;99.90
2621;DHT22;1320;48.128;11.592;2022-10-29T03:28:30;17.10;99.90
2621;DHT22;1320;48.128;11.592;2022-10-29T03:30:59;17.00;99.90
2621;DHT22;1320;48.128;11.592;2022-10-29T03:33:25;17.00;99.90
2621;DHT22;1320;48.128;11.592;2022-10-29T03:35:58;17.00;99.90
2621;DHT22;1320;48.128;11.592;2022-10-29T03:38:24;17.00;99.90
2621;DHT22;1320;48.128;11.592;2022-10-29T03:40:50;16.90;99.90
2621;DHT22;1320;48.128;11.592;2022-10-29T03:43:17;16.90;99.90
2621;DHT22;1320;48.128;11.592;2022-10-29T03:45:42;16.90;99.90
2621;DHT22;1320;48.128;11.592;2022-10-29T03:48:10;16.90;99.90
2621;DHT22;1320;48.128;11.592;2022-10-29T03:50:36;16.80;99.90
2621;DHT22;1320;48.128;11.592;2022-10-29T03:53:01;16.70;99.90
2621;DHT22;1320;48.128;11.592;2022-10-29T03:55:27;16.70;99.90
2621;DHT22;1320;48.128;11.592;2022-10-29T03:57:55;16.60;99.90
2621;DHT22;1320;48.128;11.592;2022-10-29T04:00:21;16.60;99.90
2621;DHT22;1320;48.128;11.592;2022-10-29T04:02:46;16.50;99.90
2621;DHT22;1320;48.128;11.592;2022-10-29T04:05:12;16.50;99.90
2621;DHT22;1320;48.128;11.592;2022-10-29T04:07:38;16.40;99.90
2621;DHT22;1320;48.128;11.592;2022-10-29T04:10:04;16.30;99.90
2621;DHT22;1320;48.128;11.592;2022-10-29T04:12:29;16.30;99.90
2621;DHT22;1320;48.128;11.592;2022-10-29T04:14:55;16.20;99.90
2621;DHT22;1320;48.128;11.592;2022-10-29T04:17:21;16.20;99.90
2621;DHT22;1320;48.128;11.592;2022-10-29T04:19:46;16.10;99.90
2621;DHT22;1320;48.128;11.592;2022-10-29T04:22:12;16.10;99.90
2621;DHT22;1320;48.128;11.592;2022-10-29T04:24:37;16.10;99.90
2621;DHT22;1320;48.128;11.592;2022-10-29T04:27:04;16.10;99.90
2621;DHT22;1320;48.128;11.592;2022-10-29T04:29:29;16.10;99.90
2621;DHT22;1320;48.128;11.592;2022-10-29T04:31:55;16.10;99.90
2621;DHT22;1320;48.128;11.592;2022-10-29T04:34:20;16.10;99.90
2621;DHT22;1320;48.128;11.592;2022-10-29T04:36:46;16.10;99.90
2621;DHT22;1320;48.128;11.592;2022-10-29T04:39:12;16.10;99.90
2621;DHT22;1320;48.128;11.592;2022-10-29T04:41:37;16.10;99.90
2621;DHT22;1320;48.128;11.592;2022-10-29T04:44:03;16.10;99.90
2621;DHT22;1320;48.128;11.592;2022-10-29T04:46:29;16.00;99.90
2621;DHT22;1320;48.128;11.592;2022-10-29T04:48:54;16.00;99.90
2621;DHT22;1320;48.128;11.592;2022-10-29T04:51:22;16.00;99.90
2621;DHT22;1320;48.128;11.592;2022-10-29T04:53:48;16.00;99.90
2621;DHT22;1320;48.128;11.592;2022-10-29T04:56:14;16.00;99.90
2621;DHT22;1320;48.128;11.592;2022-10-29T04:58:39;16.00;99.90
2621;DHT22;1320;48.128;11.592;2022-10-29T05:01:05;16.00;99.90
2621;DHT22;1320;48.128;11.592;2022-10-29T05:03:31;16.00;99.90
2621;DHT22;1320;48.128;11.592;2022-10-29T05:05:57;16.00;99.90
2621;DHT22;1320;48.128;11.592;2022-10-29T05:08:23;15.90;99.90
2621;DHT22;1320;48.128;11.592;2022-10-29T05:10:49;15.90;99.90
2621;DHT22;1320;48.128;11.592;2022-10-29T05:13:17;15.90;99.90
2621;DHT22;1320;48.128;11.592;2022-10-29T05:15:49;15.90;99.90
2621;DHT22;1320;48.128;11.592;2022-10-29T05:18:15;15.80;99.90
2621;DHT22;1320;48.128;11.592;2022-10-29T05:20:40;15.80;99.90
2621;DHT22;1320;48.128;11.592;2022-10-29T05:23:07;15.80;99.90
2621;DHT22;1320;48.128;11.592;2022-10-29T05:25:35;15.80;99.90
2621;DHT22;1320;48.128;11.592;2022-10-29T05:28:04;15.80;99.90
2621;DHT22;1320;48.128;11.592;2022-10-29T05:30:31;15.80;99.90
2621;DHT22;1320;48.128;11.592;2022-10-29T05:32:57;15.80;99.90
2621;DHT22;1320;48.128;11.592;2022-10-29T05:35:23;15.80;99.90
2621;DHT22;1320;48.128;11.592;2022-10-29T05:37:52;15.80;99.90
2621;DHT22;1320;48.128;11.592;2022-10-29T05:40:19;15.80;99.90
2621;DHT22;1320;48.128;11.592;2022-10-29T05:42:45;15.80;99.90
2621;DHT22;1320;48.128;11.592;2022-10-29T05:45:11;15.80;99.90
2621;DHT22;1320;48.128;11.592;2022-10-29T05:47:37;15.80;99.90
2621;DHT22;1320;48.128;11.592;2022-10-29T05:50:03;15.80;99.90
2621;DHT22;1320;48.128;11.592;2022-10-29T05:52:29;15.90;99.90
2621;DHT22;1320;48.128;11.592;2022-10-29T05:54:54;15.90;99.90
2621;DHT22;1320;48.128;11.592;2022-10-29T05:57:20;15.90;99.90
2621;DHT22;1320;48.128;11.592;2022-10-29T05:59:46;15.90;99.90
2621;DHT22;1320;48.128;11.592;2022-10-29T06:02:11;15.90;99.90
2621;DHT22;1320;48.128;11.592;2022-10-29T06:04:37;15.90;99.90
2621;DHT22;1320;48.128;11.592;2022-10-29T06:07:03;15.90;99.90
2621;DHT22;1320;48.128;11.592;2022-10-29T06:09:29;15.90;99.90
2621;DHT22;1320;48.128;11.592;2022-10-29T06:11:55;16.00;99.90
2621;DHT22;1320;48.128;11.592;2022-10-29T06:14:21;16.00;99.90
2621;DHT22;1320;48.128;11.592;2022-10-29T06:16:47;16.00;99.90
2621;DHT22;1320;48.128;11.592;2022-10-29T06:19:13;16.00;99.90
2621;DHT22;1320;48.128;11.592;2022-10-29T06:21:39;16.00;99.90
2621;DHT22;1320;48.128;11.592;2022-10-29T06:24:05;16.00;99.90
2621;DHT22;1320;48.128;11.592;2022-10-29T06:26:30;16.00;99.90
2621;DHT22;1320;48.128;11.592;2022-10-29T06:28:56;16.00;99.90
2621;DHT22;1320;48.128;11.592;2022-10-29T06:31:22;16.00;99.90
2621;DHT22;1320;48.128;11.592;2022-10-29T06:33:47;16.00;99.90
2621;DHT22;1320;48.128;11.592;2022-10-29T06:36:13;16.10;99.90
2621;DHT22;1320;48.128;11.592;2022-10-29T06:38:39;16.10;99.90
2621;DHT22;1320;48.128;11.592;2022-10-29T06:41:04;16.10;99.90
2621;DHT22;1320;48.128;11.592;2022-10-29T06:43:30;16.10;99.90
2621;DHT22;1320;48.128;11.592;2022-10-29T06:45:56;16.20;99.90
2621;DHT22;1320;48.128;11.592;2022-10-29T06:48:21;16.20;99.90
2621;DHT22;1320;48.128;11.592;2022-10-29T06:50:47;16.30;99.90
2621;DHT22;1320;48.128;11.592;2022-10-29T06:53:13;16.40;99.90
2621;DHT22;1320;48.128;11.592;2022-10-29T06:55:39;16.50;99.90
2621;DHT22;1320;48.128;11.592;2022-10-29T06:58:13;16.60;99.90
2621;DHT22;1320;48.128;11.592;2022-10-29T07:00:40;16.70;99.90
2621;DHT22;1320;48.128;11.592;2022-10-29T07:03:07;16.80;99.90
2621;DHT22;1320;48.128;11.592;2022-10-29T07:05:33;16.90;99.90
2621;DHT22;1320;48.128;11.592;2022-10-29T07:08:01;17.00;99.90
2621;DHT22;1320;48.128;11.592;2022-10-29T07:10:28;17.20;99.90
2621;DHT22;1320;48.128;11.592;2022-10-29T07:12:55;17.30;99.90
2621;DHT22;1320;48.128;11.592;2022-10-29T07:15:21;17.40;99.90
2621;DHT22;1320;48.128;11.592;2022-10-29T07:18:07;17.50;99.90
2621;DHT22;1320;48.128;11.592;2022-10-29T07:20:36;17.60;99.90
2621;DHT22;1320;48.128;11.592;2022-10-29T07:23:02;17.70;99.80
2621;DHT22;1320;48.128;11.592;2022-10-29T07:25:28;17.80;99.50
2621;DHT22;1320;48.128;11.592;2022-10-29T07:28:09;17.90;99.40
2621;DHT22;1320;48.128;11.592;2022-10-29T07:30:36;18.10;99.30
2621;DHT22;1320;48.128;11.592;2022-10-29T07:33:01;18.30;98.90
2621;DHT22;1320;48.128;11.592;2022-10-29T07:35:27;18.50;98.70
2621;DHT22;1320;48.128;11.592;2022-10-29T07:37:58;18.60;98.50
2621;DHT22;1320;48.128;11.592;2022-10-29T07:40:24;18.70;98.20
2621;DHT22;1320;48.128;11.592;2022-10-29T07:42:53;18.90;98.10
2621;DHT22;1320;48.128;11.592;2022-10-29T07:45:19;19.00;98.00
2621;DHT22;1320;48.128;11.592;2022-10-29T07:47:44;19.00;97.70
2621;DHT22;1320;48.128;11.592;2022-10-29T07:50:10;19.20;97.60
2621;DHT22;1320;48.128;11.592;2022-10-29T07:52:38;19.20;97.30
2621;DHT22;1320;48.128;11.592;2022-10-29T07:55:04;19.30;97.40
2621;DHT22;1320;48.128;11.592;2022-10-29T07:57:30;19.40;97.50
2621;DHT22;1320;48.128;11.592;2022-10-29T07:59:56;19.40;97.50
2621;DHT22;1320;48.128;11.592;2022-10-29T08:02:21;19.50;97.60
2621;DHT22;1320;48.128;11.592;2022-10-29T08:04:47;19.60;97.40
2621;DHT22;1320;48.128;11.592;2022-10-29T08:07:12;19.60;97.30
2621;DHT22;1320;48.128;11.592;2022-10-29T08:09:38;19.70;97.40
2621;DHT22;1320;48.128;11.592;2022-10-29T08:12:06;19.80;97.50
2621;DHT22;1320;48.128;11.592;2022-10-29T08:14:32;20.00;97.50
2621;DHT22;1320;48.128;11.592;2022-10-29T08:16:58;20.10;97.30
2621;DHT22;1320;48.128;11.592;2022-10-29T08:19:24;20.20;97.40
2621;DHT22;1320;48.128;11.592;2022-10-29T08:21:49;20.30;97.10
2621;DHT22;1320;48.128;11.592;2022-10-29T08:24:15;20.40;97.20
2621;DHT22;1320;48.128;11.592;2022-10-29T08:26:41;20.40;97.20
2621;DHT22;1320;48.128;11.592;2022-10-29T08:29:07;20.60;97.10
2621;DHT22;1320;48.128;11.592;2022-10-29T08:31:32;20.70;97.00
2621;DHT22;1320;48.128;11.592;2022-10-29T08:33:58;20.80;96.80
2621;DHT22;1320;48.128;11.592;2022-10-29T08:36:24;20.80;96.70
2621;DHT22;1320;48.128;11.592;2022-10-29T08:38:49;20.90;96.70
2621;DHT22;1320;48.128;11.592;2022-10-29T08:46:47;21.20;96.60
2621;DHT22;1320;48.128;11.592;2022-10-29T08:49:37;21.30;96.60
2621;DHT22;1320;48.128;11.592;2022-10-29T08:52:12;21.40;96.50
2621;DHT22;1320;48.128;11.592;2022-10-29T08:54:43;21.50;96.50
2621;DHT22;1320;48.128;11.592;2022-10-29T08:57:14;21.60;96.50
2621;DHT22;1320;48.128;11.592;2022-10-29T08:59:56;21.70;96.20
2621;DHT22;1320;48.128;11.592;2022-10-29T09:02:23;21.70;96.70
2621;DHT22;1320;48.128;11.592;2022-10-29T09:04:49;21.80;96.30
2621;DHT22;1320;48.128;11.592;2022-10-29T09:07:38;21.90;96.40
2621;DHT22;1320;48.128;11.592;2022-10-29T09:10:09;22.00;96.60
2621;DHT22;1320;48.128;11.592;2022-10-29T09:15:23;22.20;95.50
2621;DHT22;1320;48.128;11.592;2022-10-29T09:26:04;22.80;95.20
2621;DHT22;1320;48.128;11.592;2022-10-29T09:34:24;23.80;93.80
2621;DHT22;1320;48.128;11.592;2022-10-29T09:36:53;24.40;94.30
2621;DHT22;1320;48.128;11.592;2022-10-29T09:39:31;25.00;93.50
2621;DHT22;1320;48.128;11.592;2022-10-29T09:41:58;25.50;92.60
2621;DHT22;1320;48.128;11.592;2022-10-29T09:44:37;25.80;90.50
2621;DHT22;1320;48.128;11.592;2022-10-29T09:49:59;26.40;90.80
2621;DHT22;1320;48.128;11.592;2022-10-29T09:52:34;26.50;91.10
2621;DHT22;1320;48.128;11.592;2022-10-29T09:55:02;26.70;90.20
2621;DHT22;1320;48.128;11.592;2022-10-29T09:57:30;26.90;90.30
2621;DHT22;1320;48.128;11.592;2022-10-29T10:00:11;27.20;90.40
2621;DHT22;1320;48.128;11.592;2022-10-29T10:02:43;27.50;89.20
2621;DHT22;1320;48.128;11.592;2022-10-29T10:05:26;27.80;88.10
2621;DHT22;1320;48.128;11.592;2022-10-29T10:08:22;27.90;85.70
2621;DHT22;1320;48.128;11.592;2022-10-29T10:10:52;27.90;85.00
2621;DHT22;1320;48.128;11.592;2022-10-29T10:13:28;28.00;84.50
2621;DHT22;1320;48.128;11.592;2022-10-29T10:15:59;28.30;82.40
2621;DHT22;1320;48.128;11.592;2022-10-29T10:18:45;28.60;82.50
2621;DHT22;1320;48.128;11.592;2022-10-29T10:21:13;28.80;82.20
2621;DHT22;1320;48.128;11.592;2022-10-29T10:23:50;29.00;82.20
2621;DHT22;1320;48.128;11.592;2022-10-29T10:29:22;29.60;78.80
2621;DHT22;1320;48.128;11.592;2022-10-29T10:32:12;29.60;78.00
2621;DHT22;1320;48.128;11.592;2022-10-29T10:34:37;29.50;78.50
2621;DHT22;1320;48.128;11.592;2022-10-29T10:37:10;29.40;80.00
2621;DHT22;1320;48.128;11.592;2022-10-29T10:42:16;29.40;78.90
2621;DHT22;1320;48.128;11.592;2022-10-29T10:44:48;29.40;77.90
2621;DHT22;1320;48.128;11.592;2022-10-29T10:47:18;29.40;78.20
2621;DHT22;1320;48.128;11.592;2022-10-29T10:49:45;29.40;79.40
2621;DHT22;1320;48.128;11.592;2022-10-29T10:52:20;29.50;78.80
2621;DHT22;1320;48.128;11.592;2022-10-29T10:54:55;29.80;78.20
2621;DHT22;1320;48.128;11.592;2022-10-29T10:57:33;30.00;78.70
2621;DHT22;1320;48.128;11.592;2022-10-29T11:00:09;30.10;78.00
2621;DHT22;1320;48.128;11.592;2022-10-29T11:08:45;30.40;77.40
2621;DHT22;1320;48.128;11.592;2022-10-29T11:13:46;30.60;77.10
2621;DHT22;1320;48.128;11.592;2022-10-29T11:16:16;30.60;75.90
2621;DHT22;1320;48.128;11.592;2022-10-29T11:19:00;30.70;75.60
2621;DHT22;1320;48.128;11.592;2022-10-29T11:21:38;30.70;77.00
2621;DHT22;1320;48.128;11.592;2022-10-29T11:27:00;30.90;74.10
2621;DHT22;1320;48.128;11.592;2022-10-29T11:32:18;30.90;74.00
2621;DHT22;1320;48.128;11.592;2022-10-29T11:35:08;30.90;74.90
2621;DHT22;1320;48.128;11.592;2022-10-29T11:40:44;31.00;73.90
2621;DHT22;1320;48.128;11.592;2022-10-29T11:43:13;31.10;74.30
2621;DHT22;1320;48.128;11.592;2022-10-29T11:46:06;31.00;74.80
2621;DHT22;1320;48.128;11.592;2022-10-29T11:54:49;31.00;73.90
2621;DHT22;1320;48.128;11.592;2022-10-29T11:57:38;31.00;74.40
2621;DHT22;1320;48.128;11.592;2022-10-29T12:00:28;31.00;74.70
2621;DHT22;1320;48.128;11.592;2022-10-29T12:05:45;31.20;73.20
2621;DHT22;1320;48.128;11.592;2022-10-29T12:22:17;31.60;71.40
2621;DHT22;1320;48.128;11.592;2022-10-29T12:30:33;31.80;71.70
2621;DHT22;1320;48.128;11.592;2022-10-29T12:33:19;31.90;72.20
2621;DHT22;1320;48.128;11.592;2022-10-29T12:38:48;32.20;70.00
2621;DHT22;1320;48.128;11.592;2022-10-29T12:41:18;32.20;71.20
2621;DHT22;1320;48.128;11.592;2022-10-29T12:43:45;32.30;69.90
2621;DHT22;1320;48.128;11.592;2022-10-29T12:46:30;32.40;70.10
2621;DHT22;1320;48.128;11.592;2022-10-29T12:49:18;32.60;69.30
2621;DHT22;1320;48.128;11.592;2022-10-29T12:52:06;32.60;70.00
2621;DHT22;1320;48.128;11.592;2022-10-29T12:54:43;32.70;68.80
2621;DHT22;1320;48.128;11.592;2022-10-29T12:59:40;32.80;67.90
2621;DHT22;1320;48.128;11.592;2022-10-29T13:15:46;33.50;67.80
2621;DHT22;1320;48.128;11.592;2022-10-29T13:21:00;33.70;70.30
2621;DHT22;1320;48.128;11.592;2022-10-29T13:26:08;33.90;63.40
2621;DHT22;1320;48.128;11.592;2022-10-29T13:36:01;34.00;64.90
2621;DHT22;1320;48.128;11.592;2022-10-29T13:41:21;34.10;64.50
2621;DHT22;1320;48.128;11.592;2022-10-29T13:44:24;34.20;64.60
2621;DHT22;1320;48.128;11.592;2022-10-29T13:47:03;34.20;63.20
2621;DHT22;1320;48.128;11.592;2022-10-29T13:49:30;34.20;63.20
2621;DHT22;1320;48.128;11.592;2022-10-29T13:52:00;34.20;63.50
2621;DHT22;1320;48.128;11.592;2022-10-29T13:54:50;34.20;62.80
2621;DHT22;1320;48.128;11.592;2022-10-29T14:00:32;34.20;64.50
2621;DHT22;1320;48.128;11.592;2022-10-29T14:02:36;34.10;66.30
2621;DHT22;1320;48.128;11.592;2022-10-29T14:08:02;33.70;70.20
2621;DHT22;1320;48.128;11.592;2022-10-29T14:18:26;33.10;73.50
2621;DHT22;1320;48.128;11.592;2022-10-29T14:21:04;33.00;73.70
2621;DHT22;1320;48.128;11.592;2022-10-29T14:23:31;32.90;74.20
2621;DHT22;1320;48.128;11.592;2022-10-29T14:25:58;32.80;74.40
2621;DHT22;1320;48.128;11.592;2022-10-29T14:28:29;32.60;74.80
2621;DHT22;1320;48.128;11.592;2022-10-29T14:31:04;32.40;74.80
2621;DHT22;1320;48.128;11.592;2022-10-29T14:33:32;32.20;74.70
2621;DHT22;1320;48.128;11.592;2022-10-29T14:38:36;31.60;75.40
2621;DHT22;1320;48.128;11.592;2022-10-29T14:41:04;31.30;76.40
2621;DHT22;1320;48.128;11.592;2022-10-29T14:43:30;30.90;76.90
2621;DHT22;1320;48.128;11.592;2022-10-29T14:46:11;30.70;77.80
2621;DHT22;1320;48.128;11.592;2022-10-29T14:48:38;30.30;78.80
2621;DHT22;1320;48.128;11.592;2022-10-29T14:51:17;30.10;79.70
2621;DHT22;1320;48.128;11.592;2022-10-29T14:53:44;29.70;80.30
2621;DHT22;1320;48.128;11.592;2022-10-29T14:56:17;29.50;81.60
2621;DHT22;1320;48.128;11.592;2022-10-29T14:58:44;29.20;82.10
2621;DHT22;1320;48.128;11.592;2022-10-29T15:01:14;29.00;83.00
2621;DHT22;1320;48.128;11.592;2022-10-29T15:03:44;28.80;83.30
2621;DHT22;1320;48.128;11.592;2022-10-29T15:06:15;28.60;83.60
2621;DHT22;1320;48.128;11.592;2022-10-29T15:09:09;28.50;83.70
2621;DHT22;1320;48.128;11.592;2022-10-29T15:11:46;28.40;83.80
2621;DHT22;1320;48.128;11.592;2022-10-29T15:14:33;28.30;83.70
2621;DHT22;1320;48.128;11.592;2022-10-29T15:17:07;28.10;83.80
2621;DHT22;1320;48.128;11.592;2022-10-29T15:19:34;28.00;84.60
2621;DHT22;1320;48.128;11.592;2022-10-29T15:22:00;27.80;85.10
2621;DHT22;1320;48.128;11.592;2022-10-29T15:24:25;27.70;85.70
2621;DHT22;1320;48.128;11.592;2022-10-29T15:26:56;27.60;85.80
2621;DHT22;1320;48.128;11.592;2022-10-29T15:29:27;27.40;86.10
2621;DHT22;1320;48.128;11.592;2022-10-29T15:31:56;27.30;86.20
2621;DHT22;1320;48.128;11.592;2022-10-29T15:34:33;27.10;86.40
2621;DHT22;1320;48.128;11.592;2022-10-29T15:40:18;26.80;88.00
2621;DHT22;1320;48.128;11.592;2022-10-29T15:42:44;26.60;89.00
2621;DHT22;1320;48.128;11.592;2022-10-29T15:45:14;26.50;89.70
2621;DHT22;1320;48.128;11.592;2022-10-29T15:47:55;26.20;90.00
2621;DHT22;1320;48.128;11.592;2022-10-29T15:50:37;26.10;90.20
2621;DHT22;1320;48.128;11.592;2022-10-29T15:53:04;25.90;90.40
2621;DHT22;1320;48.128;11.592;2022-10-29T15:55:34;25.80;90.40
2621;DHT22;1320;48.128;11.592;2022-10-29T15:58:26;25.60;90.40
2621;DHT22;1320;48.128;11.592;2022-10-29T16:00:52;25.50;90.60
2621;DHT22;1320;48.128;11.592;2022-10-29T16:03:22;25.30;90.60
2621;DHT22;1320;48.128;11.592;2022-10-29T16:05:52;25.10;90.90
2621;DHT22;1320;48.128;11.592;2022-10-29T16:08:39;24.90;90.90
2621;DHT22;1320;48.128;11.592;2022-10-29T16:11:07;24.80;91.10
2621;DHT22;1320;48.128;11.592;2022-10-29T16:13:35;24.60;90.90
2621;DHT22;1320;48.128;11.592;2022-10-29T16:16:01;24.50;90.80
2621;DHT22;1320;48.128;11.592;2022-10-29T16:18:27;24.40;90.90
2621;DHT22;1320;48.128;11.592;2022-10-29T16:20:56;24.20;90.90
2621;DHT22;1320;48.128;11.592;2022-10-29T16:23:22;24.10;91.00
2621;DHT22;1320;48.128;11.592;2022-10-29T16:25:48;24.00;91.10
2621;DHT22;1320;48.128;11.592;2022-10-29T16:28:14;23.90;91.10
2621;DHT22;1320;48.128;11.592;2022-10-29T16:30:39;23.80;91.40
2621;DHT22;1320;48.128;11.592;2022-10-29T16:33:05;23.70;91.40
2621;DHT22;1320;48.128;11.592;2022-10-29T16:35:33;23.60;91.40
2621;DHT22;1320;48.128;11.592;2022-10-29T16:37:59;23.60;91.80
2621;DHT22;1320;48.128;11.592;2022-10-29T16:40:26;23.50;91.70
2621;DHT22;1320;48.128;11.592;2022-10-29T16:42:54;23.40;91.80
2621;DHT22;1320;48.128;11.592;2022-10-29T16:47:47;23.30;92.20
2621;DHT22;1320;48.128;11.592;2022-10-29T16:50:18;23.20;92.20
2621;DHT22;1320;48.128;11.592;2022-10-29T16:52:44;23.10;92.30
2621;DHT22;1320;48.128;11.592;2022-10-29T16:55:10;23.00;92.40
2621;DHT22;1320;48.128;11.592;2022-10-29T16:57:36;22.90;92.60
2621;DHT22;1320;48.128;11.592;2022-10-29T17:00:02;22.80;92.80
2621;DHT22;1320;48.128;11.592;2022-10-29T17:02:28;22.70;93.00
2621;DHT22;1320;48.128;11.592;2022-10-29T17:04:54;22.60;93.40
2621;DHT22;1320;48.128;11.592;2022-10-29T17:07:19;22.50;93.60
2621;DHT22;1320;48.128;11.592;2022-10-29T17:09:45;22.40;93.80
2621;DHT22;1320;48.128;11.592;2022-10-29T17:12:11;22.30;94.00
2621;DHT22;1320;48.128;11.592;2022-10-29T17:14:37;22.20;94.30
2621;DHT22;1320;48.128;11.592;2022-10-29T17:17:03;22.10;94.50
2621;DHT22;1320;48.128;11.592;2022-10-29T17:19:28;22.10;94.70
2621;DHT22;1320;48.128;11.592;2022-10-29T17:21:54;22.00;94.90
2621;DHT22;1320;48.128;11.592;2022-10-29T17:24:23;21.90;95.00
2621;DHT22;1320;48.128;11.592;2022-10-29T17:26:50;21.80;95.10
2621;DHT22;1320;48.128;11.592;2022-10-29T17:29:15;21.80;95.20
2621;DHT22;1320;48.128;11.592;2022-10-29T17:31:41;21.70;95.20
2621;DHT22;1320;48.128;11.592;2022-10-29T17:34:07;21.60;95.40
2621;DHT22;1320;48.128;11.592;2022-10-29T17:36:32;21.50;95.40
2621;DHT22;1320;48.128;11.592;2022-10-29T17:38:58;21.40;95.40
2621;DHT22;1320;48.128;11.592;2022-10-29T17:41:24;21.40;95.50
2621;DHT22;1320;48.128;11.592;2022-10-29T17:43:49;21.30;95.60
2621;DHT22;1320;48.128;11.592;2022-10-29T17:46:15;21.20;95.70
2621;DHT22;1320;48.128;11.592;2022-10-29T17:48:42;21.20;95.90
2621;DHT22;1320;48.128;11.592;2022-10-29T17:51:08;21.10;96.00
2621;DHT22;1320;48.128;11.592;2022-10-29T17:53:36;21.10;96.20
2621;DHT22;1320;48.128;11.592;2022-10-29T17:56:02;21.00;96.30
2621;DHT22;1320;48.128;11.592;2022-10-29T17:58:28;20.90;96.50
2621;DHT22;1320;48.128;11.592;2022-10-29T18:01:02;20.90;96.70
2621;DHT22;1320;48.128;11.592;2022-10-29T18:03:27;20.80;96.80
2621;DHT22;1320;48.128;11.592;2022-10-29T18:05:58;20.80;97.00
2621;DHT22;1320;48.128;11.592;2022-10-29T18:08:24;20.70;97.00
2621;DHT22;1320;48.128;11.592;2022-10-29T18:10:49;20.60;97.10
2621;DHT22;1320;48.128;11.592;2022-10-29T18:13:18;20.60;97.20
2621;DHT22;1320;48.128;11.592;2022-10-29T18:15:43;20.50;97.30
2621;DHT22;1320;48.128;11.592;2022-10-29T18:18:09;20.50;97.40
2621;DHT22;1320;48.128;11.592;2022-10-29T18:20:34;20.40;97.60
2621;DHT22;1320;48.128;11.592;2022-10-29T18:23:00;20.40;97.70
2621;DHT22;1320;48.128;11.592;2022-10-29T18:25:26;20.30;97.80
2621;DHT22;1320;48.128;11.592;2022-10-29T18:27:51;20.30;97.90
2621;DHT22;1320;48.128;11.592;2022-10-29T18:30:20;20.30;98.10
2621;DHT22;1320;48.128;11.592;2022-10-29T18:32:47;20.20;98.10
2621;DHT22;1320;48.128;11.592;2022-10-29T18:35:13;20.20;98.20
2621;DHT22;1320;48.128;11.592;2022-10-29T18:37:38;20.10;98.20
2621;DHT22;1320;48.128;11.592;2022-10-29T18:40:04;20.10;98.30